Taunsa Weather



Taunsa's Current Weather

Temprature 27.006o clear sky

clear sky

Rain: 0 %

Min Temprature27.006o
Max Temprature27.006o
Humidity33
Wind Speed3.34 m/h
Sun Rise05:43:48
Sun Set18:48:15
Current Time: 21-Apr-2019 05:41:30
Lat/Lon: 30.7, 70.65




Taunsa's Geo Location



Taunsa's Weather Forecast

Time Overall Temp Min Temp Max Temp Humidity Wind Speed Rain
21-Apr-2019 (Sun)
08:00:00 clear sky 29.380 29.379 29.380 28 3.84 m/h 0 %
11:00:00 clear sky 32.550 32.550 32.550 23 3.34 m/h 0 %
14:00:00 clear sky 35.350 35.350 35.350 18 3.07 m/h 0 %
17:00:00 clear sky 36.450 36.450 36.450 17 3.76 m/h 0 %
20:00:00 clear sky 34.250 34.250 34.250 19 2.5 m/h 0 %
23:00:00 clear sky 31.530 31.530 31.530 24 1.24 m/h 0 %
22-Apr-2019 (Mon)
02:00:00 clear sky 29.970 29.970 29.970 26 2.02 m/h 0 %
05:00:00 clear sky 28.614 28.614 28.614 28 3.27 m/h 0 %
08:00:00 clear sky 30.826 30.826 30.826 26 3.42 m/h 0 %
11:00:00 clear sky 34.420 34.420 34.420 21 2.34 m/h 0 %
14:00:00 clear sky 38.215 38.215 38.215 15 4.08 m/h 0 %
17:00:00 clear sky 39.531 39.531 39.531 12 5.55 m/h 0 %
20:00:00 clear sky 36.250 36.250 36.250 14 3.45 m/h 0 %
23:00:00 clear sky 33.096 33.096 33.096 20 0.94 m/h 0 %
23-Apr-2019 (Tue)
02:00:00 scattered clouds 31.877 31.877 31.877 21 4.39 m/h 0 %
05:00:00 broken clouds 30.156 30.156 30.156 27 3.79 m/h 0 %
08:00:00 scattered clouds 32.487 32.487 32.487 24 3.51 m/h 0 %
11:00:00 few clouds 36.250 36.250 36.250 19 3.86 m/h 0 %
14:00:00 clear sky 38.750 38.750 38.750 15 2.87 m/h 0 %
17:00:00 clear sky 40.050 40.050 40.050 12 3.76 m/h 0 %
20:00:00 broken clouds 37.628 37.628 37.628 14 2.27 m/h 0 %
23:00:00 broken clouds 35.350 35.350 35.350 18 3.86 m/h 0 %
24-Apr-2019 (Wed)
02:00:00 scattered clouds 32.382 32.382 32.382 23 3.03 m/h 0 %
05:00:00 few clouds 30.264 30.264 30.264 28 6.82 m/h 0 %
08:00:00 scattered clouds 32.050 32.050 32.050 24 7.93 m/h 0 %
11:00:00 broken clouds 35.609 35.609 35.609 19 6.89 m/h 0 %
14:00:00 overcast clouds 36.350 36.350 36.350 18 8.22 m/h 0 %
17:00:00 light rain 35.050 35.050 35.050 21 6.46 m/h 38 %
20:00:00 light rain 30.055 30.055 30.055 34 9.37 m/h 13 %
23:00:00 light rain 27.545 27.545 27.545 46 4.86 m/h 38 %
25-Apr-2019 (Thu)
02:00:00 light rain 27.050 27.050 27.050 47 3.57 m/h 181 %
05:00:00 few clouds 26.782 26.782 26.782 46 3.42 m/h 0 %
08:00:00 clear sky 28.520 28.520 28.520 39 2.99 m/h 0 %
11:00:00 clear sky 32.990 32.990 32.990 26 4.35 m/h 0 %
14:00:00 light rain 34.650 34.650 34.650 22 3.56 m/h 25 %
17:00:00 light rain 34.011 34.011 34.011 23 1.75 m/h 163 %
20:00:00 light rain 31.625 31.625 31.625 29 1.91 m/h 131 %
23:00:00 light rain 29.943 29.943 29.943 36 2.21 m/h 231 %
26-Apr-2019 (Fri)
02:00:00 light rain 29.432 29.432 29.432 41 1.02 m/h 13 %
05:00:00 clear sky 29.016 29.016 29.016 39 2.88 m/h 0 %

Famous Cities (60)